sensor_id;sensor_type;location;lat;lon;timestamp;P1;durP1;ratioP1;P2;durP2;ratioP2
24159;SDS011;62385;41.594;23.808;2023-04-03T00:00:11;6.00;;;2.47;;
24159;SDS011;62385;41.594;23.808;2023-04-03T00:02:37;8.67;;;3.30;;
24159;SDS011;62385;41.594;23.808;2023-04-03T00:05:03;4.97;;;2.57;;
24159;SDS011;62385;41.594;23.808;2023-04-03T00:07:29;6.60;;;2.50;;
24159;SDS011;62385;41.594;23.808;2023-04-03T00:09:55;3.00;;;1.30;;
24159;SDS011;62385;41.594;23.808;2023-04-03T00:12:22;7.20;;;3.27;;
24159;SDS011;62385;41.594;23.808;2023-04-03T00:14:47;3.77;;;1.37;;
24159;SDS011;62385;41.594;23.808;2023-04-03T00:17:14;5.07;;;1.93;;
24159;SDS011;62385;41.594;23.808;2023-04-03T00:19:39;9.33;;;3.10;;
24159;SDS011;62385;41.594;23.808;2023-04-03T00:22:05;2.67;;;1.73;;
24159;SDS011;62385;41.594;23.808;2023-04-03T00:24:30;6.03;;;1.70;;
24159;SDS011;62385;41.594;23.808;2023-04-03T00:26:56;3.87;;;1.93;;
24159;SDS011;62385;41.594;23.808;2023-04-03T00:29:22;8.33;;;2.93;;
24159;SDS011;62385;41.594;23.808;2023-04-03T00:31:47;10.47;;;2.87;;
24159;SDS011;62385;41.594;23.808;2023-04-03T00:34:13;2.47;;;2.07;;
24159;SDS011;62385;41.594;23.808;2023-04-03T00:36:39;1.60;;;1.50;;
24159;SDS011;62385;41.594;23.808;2023-04-03T00:39:04;1.33;;;1.07;;
24159;SDS011;62385;41.594;23.808;2023-04-03T00:41:31;7.50;;;2.73;;
24159;SDS011;62385;41.594;23.808;2023-04-03T00:43:57;2.00;;;1.00;;
24159;SDS011;62385;41.594;23.808;2023-04-03T00:46:23;3.33;;;1.53;;
24159;SDS011;62385;41.594;23.808;2023-04-03T00:48:48;3.43;;;1.73;;
24159;SDS011;62385;41.594;23.808;2023-04-03T00:51:23;1.50;;;1.13;;
24159;SDS011;62385;41.594;23.808;2023-04-03T00:54:00;1.43;;;0.67;;
24159;SDS011;62385;41.594;23.808;2023-04-03T00:56:31;1.90;;;1.50;;
24159;SDS011;62385;41.594;23.808;2023-04-03T00:58:58;0.30;;;0.30;;
24159;SDS011;62385;41.594;23.808;2023-04-03T01:01:27;2.93;;;1.50;;
24159;SDS011;62385;41.594;23.808;2023-04-03T01:03:54;2.93;;;2.07;;
24159;SDS011;62385;41.594;23.808;2023-04-03T01:06:26;3.50;;;1.27;;
24159;SDS011;62385;41.594;23.808;2023-04-03T01:09:02;2.00;;;0.70;;
24159;SDS011;62385;41.594;23.808;2023-04-03T01:11:28;2.57;;;1.07;;
24159;SDS011;62385;41.594;23.808;2023-04-03T01:13:54;0.83;;;0.70;;
24159;SDS011;62385;41.594;23.808;2023-04-03T01:16:21;0.93;;;0.60;;
24159;SDS011;62385;41.594;23.808;2023-04-03T01:18:46;0.80;;;0.50;;
24159;SDS011;62385;41.594;23.808;2023-04-03T01:26:53;3.73;;;1.50;;
24159;SDS011;62385;41.594;23.808;2023-04-03T01:29:18;1.83;;;0.87;;
24159;SDS011;62385;41.594;23.808;2023-04-03T01:34:22;0.40;;;0.40;;
24159;SDS011;62385;41.594;23.808;2023-04-03T01:36:49;2.13;;;1.07;;
24159;SDS011;62385;41.594;23.808;2023-04-03T01:39:18;0.33;;;0.20;;
24159;SDS011;62385;41.594;23.808;2023-04-03T01:41:46;0.40;;;0.40;;
24159;SDS011;62385;41.594;23.808;2023-04-03T01:44:17;0.20;;;0.17;;
24159;SDS011;62385;41.594;23.808;2023-04-03T01:46:44;0.40;;;0.40;;
24159;SDS011;62385;41.594;23.808;2023-04-03T01:49:09;0.23;;;0.13;;
24159;SDS011;62385;41.594;23.808;2023-04-03T01:51:35;0.60;;;0.57;;
24159;SDS011;62385;41.594;23.808;2023-04-03T01:54:01;0.50;;;0.30;;
24159;SDS011;62385;41.594;23.808;2023-04-03T01:56:27;3.27;;;1.83;;
24159;SDS011;62385;41.594;23.808;2023-04-03T01:58:53;0.30;;;0.30;;
24159;SDS011;62385;41.594;23.808;2023-04-03T02:01:19;0.43;;;0.40;;
24159;SDS011;62385;41.594;23.808;2023-04-03T02:03:45;15.03;;;0.97;;
24159;SDS011;62385;41.594;23.808;2023-04-03T02:06:12;1.23;;;0.50;;
24159;SDS011;62385;41.594;23.808;2023-04-03T02:08:37;0.60;;;0.47;;
24159;SDS011;62385;41.594;23.808;2023-04-03T02:11:05;3.73;;;0.50;;
24159;SDS011;62385;41.594;23.808;2023-04-03T02:13:32;0.20;;;0.10;;
24159;SDS011;62385;41.594;23.808;2023-04-03T02:15:58;0.30;;;0.20;;
24159;SDS011;62385;41.594;23.808;2023-04-03T02:18:24;0.50;;;0.30;;
24159;SDS011;62385;41.594;23.808;2023-04-03T02:20:49;0.80;;;0.57;;
24159;SDS011;62385;41.594;23.808;2023-04-03T02:23:15;1.43;;;0.60;;
24159;SDS011;62385;41.594;23.808;2023-04-03T02:25:41;0.20;;;0.20;;
24159;SDS011;62385;41.594;23.808;2023-04-03T02:28:06;1.60;;;0.63;;
24159;SDS011;62385;41.594;23.808;2023-04-03T02:30:32;2.50;;;1.87;;
24159;SDS011;62385;41.594;23.808;2023-04-03T02:32:58;1.17;;;0.40;;
24159;SDS011;62385;41.594;23.808;2023-04-03T02:35:24;2.00;;;0.50;;
24159;SDS011;62385;41.594;23.808;2023-04-03T02:37:51;0.50;;;0.50;;
24159;SDS011;62385;41.594;23.808;2023-04-03T02:40:17;1.20;;;1.10;;
24159;SDS011;62385;41.594;23.808;2023-04-03T02:42:43;1.90;;;1.77;;
24159;SDS011;62385;41.594;23.808;2023-04-03T02:45:28;1.37;;;1.03;;
24159;SDS011;62385;41.594;23.808;2023-04-03T02:47:54;0.27;;;0.27;;
24159;SDS011;62385;41.594;23.808;2023-04-03T02:50:19;0.93;;;0.40;;
24159;SDS011;62385;41.594;23.808;2023-04-03T02:52:45;0.40;;;0.30;;
24159;SDS011;62385;41.594;23.808;2023-04-03T02:55:13;1.03;;;0.30;;
24159;SDS011;62385;41.594;23.808;2023-04-03T02:57:39;0.50;;;0.50;;
24159;SDS011;62385;41.594;23.808;2023-04-03T03:00:05;0.30;;;0.23;;
24159;SDS011;62385;41.594;23.808;2023-04-03T03:02:32;0.77;;;0.33;;
24159;SDS011;62385;41.594;23.808;2023-04-03T03:04:58;1.57;;;0.63;;
24159;SDS011;62385;41.594;23.808;2023-04-03T03:07:23;0.57;;;0.33;;
24159;SDS011;62385;41.594;23.808;2023-04-03T03:09:49;0.27;;;0.20;;
24159;SDS011;62385;41.594;23.808;2023-04-03T03:12:15;2.17;;;1.23;;
24159;SDS011;62385;41.594;23.808;2023-04-03T03:14:41;0.30;;;0.20;;
24159;SDS011;62385;41.594;23.808;2023-04-03T03:17:07;1.17;;;0.43;;
24159;SDS011;62385;41.594;23.808;2023-04-03T03:19:33;1.83;;;1.53;;
24159;SDS011;62385;41.594;23.808;2023-04-03T03:22:00;0.73;;;0.57;;
24159;SDS011;62385;41.594;23.808;2023-04-03T03:24:25;1.17;;;0.60;;
24159;SDS011;62385;41.594;23.808;2023-04-03T03:26:52;0.40;;;0.30;;
24159;SDS011;62385;41.594;23.808;2023-04-03T03:29:17;1.10;;;0.50;;
24159;SDS011;62385;41.594;23.808;2023-04-03T03:31:44;0.83;;;0.40;;
24159;SDS011;62385;41.594;23.808;2023-04-03T03:34:10;3.67;;;0.80;;
24159;SDS011;62385;41.594;23.808;2023-04-03T03:36:37;3.30;;;1.07;;
24159;SDS011;62385;41.594;23.808;2023-04-03T03:39:02;0.50;;;0.20;;
24159;SDS011;62385;41.594;23.808;2023-04-03T03:41:28;0.50;;;0.40;;
24159;SDS011;62385;41.594;23.808;2023-04-03T03:43:54;15.97;;;1.30;;
24159;SDS011;62385;41.594;23.808;2023-04-03T03:46:19;1.10;;;1.07;;
24159;SDS011;62385;41.594;23.808;2023-04-03T03:48:45;0.40;;;0.40;;
24159;SDS011;62385;41.594;23.808;2023-04-03T03:51:11;1.67;;;0.80;;
24159;SDS011;62385;41.594;23.808;2023-04-03T03:53:38;1.63;;;0.63;;
24159;SDS011;62385;41.594;23.808;2023-04-03T03:56:07;2.30;;;0.90;;
24159;SDS011;62385;41.594;23.808;2023-04-03T03:58:34;7.40;;;5.10;;
24159;SDS011;62385;41.594;23.808;2023-04-03T04:01:02;2.10;;;1.27;;
24159;SDS011;62385;41.594;23.808;2023-04-03T04:03:29;1.13;;;1.03;;
24159;SDS011;62385;41.594;23.808;2023-04-03T04:05:55;0.80;;;0.73;;
24159;SDS011;62385;41.594;23.808;2023-04-03T04:08:20;1.23;;;1.03;;
24159;SDS011;62385;41.594;23.808;2023-04-03T04:10:46;1.90;;;0.57;;
24159;SDS011;62385;41.594;23.808;2023-04-03T04:13:14;2.57;;;1.30;;
24159;SDS011;62385;41.594;23.808;2023-04-03T04:15:40;0.60;;;0.57;;
24159;SDS011;62385;41.594;23.808;2023-04-03T04:18:06;1.90;;;1.13;;
24159;SDS011;62385;41.594;23.808;2023-04-03T04:20:31;3.00;;;1.37;;
24159;SDS011;62385;41.594;23.808;2023-04-03T04:22:57;13.50;;;3.50;;
24159;SDS011;62385;41.594;23.808;2023-04-03T04:25:24;5.53;;;2.90;;
24159;SDS011;62385;41.594;23.808;2023-04-03T04:27:50;8.13;;;6.87;;
24159;SDS011;62385;41.594;23.808;2023-04-03T04:30:16;1.97;;;1.77;;
24159;SDS011;62385;41.594;23.808;2023-04-03T04:32:44;1.37;;;1.23;;
24159;SDS011;62385;41.594;23.808;2023-04-03T04:35:11;5.13;;;1.93;;
24159;SDS011;62385;41.594;23.808;2023-04-03T04:37:40;1.60;;;1.07;;
24159;SDS011;62385;41.594;23.808;2023-04-03T04:40:06;0.97;;;0.90;;
24159;SDS011;62385;41.594;23.808;2023-04-03T04:42:32;1.97;;;1.10;;
24159;SDS011;62385;41.594;23.808;2023-04-03T04:44:59;7.93;;;1.10;;
24159;SDS011;62385;41.594;23.808;2023-04-03T04:47:25;1.17;;;0.90;;
24159;SDS011;62385;41.594;23.808;2023-04-03T04:49:52;2.53;;;1.60;;
24159;SDS011;62385;41.594;23.808;2023-04-03T04:52:18;4.10;;;1.63;;
24159;SDS011;62385;41.594;23.808;2023-04-03T04:54:44;4.00;;;2.40;;
24159;SDS011;62385;41.594;23.808;2023-04-03T04:57:10;2.47;;;1.23;;
24159;SDS011;62385;41.594;23.808;2023-04-03T04:59:36;1.10;;;1.00;;
24159;SDS011;62385;41.594;23.808;2023-04-03T05:02:02;5.07;;;3.10;;
24159;SDS011;62385;41.594;23.808;2023-04-03T05:04:28;5.40;;;3.03;;
24159;SDS011;62385;41.594;23.808;2023-04-03T05:07:00;2.63;;;2.03;;
24159;SDS011;62385;41.594;23.808;2023-04-03T05:09:28;1.13;;;0.97;;
24159;SDS011;62385;41.594;23.808;2023-04-03T05:11:54;3.93;;;1.83;;
24159;SDS011;62385;41.594;23.808;2023-04-03T05:14:24;5.43;;;1.97;;
24159;SDS011;62385;41.594;23.808;2023-04-03T05:16:49;11.13;;;2.20;;
24159;SDS011;62385;41.594;23.808;2023-04-03T05:19:20;11.77;;;3.37;;
24159;SDS011;62385;41.594;23.808;2023-04-03T05:21:46;5.30;;;3.47;;
24159;SDS011;62385;41.594;23.808;2023-04-03T05:24:15;8.23;;;3.87;;
24159;SDS011;62385;41.594;23.808;2023-04-03T05:26:42;9.97;;;3.40;;
24159;SDS011;62385;41.594;23.808;2023-04-03T05:29:09;2.43;;;2.13;;
24159;SDS011;62385;41.594;23.808;2023-04-03T05:31:35;3.30;;;3.00;;
24159;SDS011;62385;41.594;23.808;2023-04-03T05:34:02;3.73;;;2.10;;
24159;SDS011;62385;41.594;23.808;2023-04-03T05:36:31;9.20;;;3.43;;
24159;SDS011;62385;41.594;23.808;2023-04-03T05:39:01;1.07;;;1.07;;
24159;SDS011;62385;41.594;23.808;2023-04-03T05:41:26;6.70;;;3.23;;
24159;SDS011;62385;41.594;23.808;2023-04-03T05:43:52;5.23;;;3.67;;
24159;SDS011;62385;41.594;23.808;2023-04-03T05:46:20;6.70;;;5.17;;
24159;SDS011;62385;41.594;23.808;2023-04-03T05:48:50;9.50;;;4.03;;
24159;SDS011;62385;41.594;23.808;2023-04-03T05:51:24;8.90;;;3.97;;
24159;SDS011;62385;41.594;23.808;2023-04-03T05:54:00;8.50;;;4.37;;
24159;SDS011;62385;41.594;23.808;2023-04-03T05:56:34;24.17;;;2.60;;
24159;SDS011;62385;41.594;23.808;2023-04-03T05:59:00;2.00;;;1.40;;
24159;SDS011;62385;41.594;23.808;2023-04-03T06:01:26;3.03;;;1.97;;
24159;SDS011;62385;41.594;23.808;2023-04-03T06:03:52;2.17;;;1.53;;
24159;SDS011;62385;41.594;23.808;2023-04-03T06:06:18;1.43;;;1.33;;
24159;SDS011;62385;41.594;23.808;2023-04-03T06:08:43;2.73;;;2.13;;
24159;SDS011;62385;41.594;23.808;2023-04-03T06:11:10;2.53;;;2.13;;
24159;SDS011;62385;41.594;23.808;2023-04-03T06:13:36;5.97;;;2.80;;
24159;SDS011;62385;41.594;23.808;2023-04-03T06:16:02;4.53;;;3.10;;
24159;SDS011;62385;41.594;23.808;2023-04-03T06:18:29;6.97;;;3.00;;
24159;SDS011;62385;41.594;23.808;2023-04-03T06:20:55;3.97;;;2.63;;
24159;SDS011;62385;41.594;23.808;2023-04-03T06:23:21;8.80;;;2.97;;
24159;SDS011;62385;41.594;23.808;2023-04-03T06:25:46;8.17;;;4.57;;
24159;SDS011;62385;41.594;23.808;2023-04-03T06:28:12;7.80;;;4.33;;
24159;SDS011;62385;41.594;23.808;2023-04-03T06:30:38;9.57;;;6.67;;
24159;SDS011;62385;41.594;23.808;2023-04-03T06:33:03;15.00;;;7.43;;
24159;SDS011;62385;41.594;23.808;2023-04-03T06:35:29;9.07;;;4.90;;
24159;SDS011;62385;41.594;23.808;2023-04-03T06:37:55;16.17;;;7.83;;
24159;SDS011;62385;41.594;23.808;2023-04-03T06:40:22;17.03;;;7.40;;
24159;SDS011;62385;41.594;23.808;2023-04-03T06:42:49;9.57;;;5.30;;
24159;SDS011;62385;41.594;23.808;2023-04-03T06:45:17;8.90;;;4.33;;
24159;SDS011;62385;41.594;23.808;2023-04-03T06:47:42;5.43;;;3.20;;
24159;SDS011;62385;41.594;23.808;2023-04-03T06:50:10;3.90;;;3.23;;
24159;SDS011;62385;41.594;23.808;2023-04-03T06:52:39;2.70;;;2.07;;
24159;SDS011;62385;41.594;23.808;2023-04-03T06:55:05;1.77;;;1.43;;
24159;SDS011;62385;41.594;23.808;2023-04-03T06:57:31;6.30;;;2.43;;
24159;SDS011;62385;41.594;23.808;2023-04-03T06:59:57;2.70;;;2.00;;
24159;SDS011;62385;41.594;23.808;2023-04-03T07:02:23;3.40;;;1.20;;
24159;SDS011;62385;41.594;23.808;2023-04-03T07:04:48;1.77;;;1.33;;
24159;SDS011;62385;41.594;23.808;2023-04-03T07:07:14;1.73;;;1.30;;
24159;SDS011;62385;41.594;23.808;2023-04-03T07:09:40;3.43;;;1.80;;
24159;SDS011;62385;41.594;23.808;2023-04-03T07:12:07;4.67;;;1.93;;
24159;SDS011;62385;41.594;23.808;2023-04-03T07:14:33;2.30;;;1.17;;
24159;SDS011;62385;41.594;23.808;2023-04-03T07:16:58;3.50;;;1.53;;
24159;SDS011;62385;41.594;23.808;2023-04-03T07:19:24;2.10;;;1.60;;
24159;SDS011;62385;41.594;23.808;2023-04-03T07:21:53;3.13;;;1.63;;
24159;SDS011;62385;41.594;23.808;2023-04-03T07:24:18;5.53;;;2.43;;
24159;SDS011;62385;41.594;23.808;2023-04-03T07:26:48;2.63;;;1.73;;
24159;SDS011;62385;41.594;23.808;2023-04-03T07:29:15;1.73;;;1.63;;
24159;SDS011;62385;41.594;23.808;2023-04-03T07:31:40;3.27;;;1.90;;
24159;SDS011;62385;41.594;23.808;2023-04-03T07:34:07;2.07;;;1.87;;
24159;SDS011;62385;41.594;23.808;2023-04-03T07:36:32;3.53;;;2.60;;
24159;SDS011;62385;41.594;23.808;2023-04-03T07:38:58;5.90;;;3.70;;
24159;SDS011;62385;41.594;23.808;2023-04-03T07:41:24;3.50;;;3.07;;
24159;SDS011;62385;41.594;23.808;2023-04-03T07:43:49;5.10;;;3.67;;
24159;SDS011;62385;41.594;23.808;2023-04-03T07:46:15;8.87;;;3.97;;
24159;SDS011;62385;41.594;23.808;2023-04-03T07:48:42;5.77;;;3.70;;
24159;SDS011;62385;41.594;23.808;2023-04-03T07:51:09;7.93;;;4.17;;
24159;SDS011;62385;41.594;23.808;2023-04-03T07:53:35;14.13;;;6.47;;
24159;SDS011;62385;41.594;23.808;2023-04-03T07:56:01;11.33;;;7.53;;
24159;SDS011;62385;41.594;23.808;2023-04-03T07:58:29;6.60;;;5.17;;
24159;SDS011;62385;41.594;23.808;2023-04-03T08:00:55;12.80;;;7.50;;
24159;SDS011;62385;41.594;23.808;2023-04-03T08:03:21;16.13;;;7.30;;
24159;SDS011;62385;41.594;23.808;2023-04-03T08:05:47;10.63;;;7.37;;
24159;SDS011;62385;41.594;23.808;2023-04-03T08:08:15;22.40;;;7.77;;
24159;SDS011;62385;41.594;23.808;2023-04-03T08:10:43;23.77;;;7.37;;
24159;SDS011;62385;41.594;23.808;2023-04-03T08:13:08;7.10;;;3.20;;
24159;SDS011;62385;41.594;23.808;2023-04-03T08:15:34;5.87;;;2.23;;
24159;SDS011;62385;41.594;23.808;2023-04-03T08:18:02;7.80;;;4.10;;
24159;SDS011;62385;41.594;23.808;2023-04-03T08:20:28;4.67;;;3.17;;
24159;SDS011;62385;41.594;23.808;2023-04-03T08:22:54;2.93;;;2.27;;
24159;SDS011;62385;41.594;23.808;2023-04-03T08:25:20;2.87;;;2.07;;
24159;SDS011;62385;41.594;23.808;2023-04-03T08:27:47;3.30;;;2.60;;
24159;SDS011;62385;41.594;23.808;2023-04-03T08:30:13;6.97;;;2.20;;
24159;SDS011;62385;41.594;23.808;2023-04-03T08:32:39;3.37;;;1.93;;
24159;SDS011;62385;41.594;23.808;2023-04-03T08:35:07;2.47;;;1.27;;
24159;SDS011;62385;41.594;23.808;2023-04-03T08:37:37;5.67;;;2.07;;
24159;SDS011;62385;41.594;23.808;2023-04-03T08:40:05;12.43;;;5.87;;
24159;SDS011;62385;41.594;23.808;2023-04-03T08:50:12;8.20;;;2.80;;
24159;SDS011;62385;41.594;23.808;2023-04-03T08:57:51;2.53;;;1.67;;
24159;SDS011;62385;41.594;23.808;2023-04-03T09:00:40;1.23;;;1.13;;
24159;SDS011;62385;41.594;23.808;2023-04-03T09:03:17;6.63;;;1.50;;
24159;SDS011;62385;41.594;23.808;2023-04-03T09:05:47;1.00;;;0.90;;
24159;SDS011;62385;41.594;23.808;2023-04-03T09:08:21;1.00;;;0.80;;
24159;SDS011;62385;41.594;23.808;2023-04-03T09:10:48;1.03;;;0.70;;
24159;SDS011;62385;41.594;23.808;2023-04-03T09:15:46;0.83;;;0.70;;
24159;SDS011;62385;41.594;23.808;2023-04-03T09:18:13;2.47;;;1.57;;
24159;SDS011;62385;41.594;23.808;2023-04-03T09:23:43;1.83;;;1.03;;
24159;SDS011;62385;41.594;23.808;2023-04-03T09:26:16;8.17;;;3.57;;
24159;SDS011;62385;41.594;23.808;2023-04-03T09:28:46;8.60;;;5.03;;
24159;SDS011;62385;41.594;23.808;2023-04-03T09:34:23;6.13;;;3.37;;
24159;SDS011;62385;41.594;23.808;2023-04-03T09:36:52;4.87;;;2.17;;
24159;SDS011;62385;41.594;23.808;2023-04-03T09:39:27;2.07;;;1.60;;
24159;SDS011;62385;41.594;23.808;2023-04-03T09:41:55;3.17;;;2.47;;
24159;SDS011;62385;41.594;23.808;2023-04-03T09:44:35;13.77;;;4.20;;
24159;SDS011;62385;41.594;23.808;2023-04-03T09:47:22;2.50;;;1.90;;
24159;SDS011;62385;41.594;23.808;2023-04-03T09:49:52;9.60;;;4.23;;
24159;SDS011;62385;41.594;23.808;2023-04-03T09:52:34;6.00;;;4.30;;
24159;SDS011;62385;41.594;23.808;2023-04-03T09:55:06;5.90;;;3.73;;
24159;SDS011;62385;41.594;23.808;2023-04-03T09:57:52;10.80;;;4.83;;
24159;SDS011;62385;41.594;23.808;2023-04-03T10:00:23;5.80;;;3.60;;
24159;SDS011;62385;41.594;23.808;2023-04-03T10:02:54;6.67;;;3.70;;
24159;SDS011;62385;41.594;23.808;2023-04-03T10:10:34;8.83;;;4.70;;
24159;SDS011;62385;41.594;23.808;2023-04-03T10:13:09;11.10;;;6.33;;
24159;SDS011;62385;41.594;23.808;2023-04-03T10:15:44;14.90;;;7.43;;
24159;SDS011;62385;41.594;23.808;2023-04-03T10:20:47;13.27;;;6.07;;
24159;SDS011;62385;41.594;23.808;2023-04-03T10:25:54;11.90;;;6.87;;
24159;SDS011;62385;41.594;23.808;2023-04-03T10:39:00;10.50;;;3.50;;
24159;SDS011;62385;41.594;23.808;2023-04-03T10:48:26;7.17;;;4.30;;
24159;SDS011;62385;41.594;23.808;2023-04-03T10:58:52;2.67;;;1.97;;
24159;SDS011;62385;41.594;23.808;2023-04-03T11:01:24;5.50;;;2.33;;
24159;SDS011;62385;41.594;23.808;2023-04-03T11:03:57;2.70;;;1.77;;
24159;SDS011;62385;41.594;23.808;2023-04-03T11:06:26;1.90;;;1.23;;
24159;SDS011;62385;41.594;23.808;2023-04-03T11:09:00;3.50;;;1.90;;
24159;SDS011;62385;41.594;23.808;2023-04-03T11:11:41;1.60;;;1.40;;
24159;SDS011;62385;41.594;23.808;2023-04-03T11:14:17;2.43;;;1.87;;
24159;SDS011;62385;41.594;23.808;2023-04-03T11:16:59;4.23;;;2.20;;
24159;SDS011;62385;41.594;23.808;2023-04-03T11:22:54;3.70;;;1.10;;
24159;SDS011;62385;41.594;23.808;2023-04-03T11:25:26;5.93;;;1.97;;
24159;SDS011;62385;41.594;23.808;2023-04-03T11:27:56;3.22;;;1.90;;
24159;SDS011;62385;41.594;23.808;2023-04-03T11:30:31;6.20;;;2.77;;
24159;SDS011;62385;41.594;23.808;2023-04-03T11:36:52;9.57;;;3.60;;
24159;SDS011;62385;41.594;23.808;2023-04-03T11:42:15;4.87;;;2.73;;
24159;SDS011;62385;41.594;23.808;2023-04-03T11:44:41;4.83;;;4.37;;
24159;SDS011;62385;41.594;23.808;2023-04-03T11:47:11;6.00;;;4.37;;
24159;SDS011;62385;41.594;23.808;2023-04-03T11:50:04;4.10;;;3.30;;
24159;SDS011;62385;41.594;23.808;2023-04-03T12:05:54;5.60;;;2.67;;
24159;SDS011;62385;41.594;23.808;2023-04-03T12:08:47;3.07;;;2.87;;
24159;SDS011;62385;41.594;23.808;2023-04-03T12:16:27;5.60;;;3.67;;
24159;SDS011;62385;41.594;23.808;2023-04-03T12:34:35;5.37;;;2.40;;
24159;SDS011;62385;41.594;23.808;2023-04-03T12:37:09;5.27;;;2.63;;
24159;SDS011;62385;41.594;23.808;2023-04-03T12:40:02;1.37;;;0.93;;
24159;SDS011;62385;41.594;23.808;2023-04-03T12:42:40;1.70;;;0.77;;
24159;SDS011;62385;41.594;23.808;2023-04-03T12:45:20;1.67;;;1.13;;
24159;SDS011;62385;41.594;23.808;2023-04-03T12:47:48;3.90;;;1.90;;
24159;SDS011;62385;41.594;23.808;2023-04-03T12:52:51;4.83;;;3.43;;
24159;SDS011;62385;41.594;23.808;2023-04-03T12:55:29;1.57;;;1.43;;
24159;SDS011;62385;41.594;23.808;2023-04-03T12:57:54;0.93;;;0.83;;
24159;SDS011;62385;41.594;23.808;2023-04-03T13:02:48;2.40;;;1.53;;
24159;SDS011;62385;41.594;23.808;2023-04-03T13:05:15;2.57;;;1.47;;
24159;SDS011;62385;41.594;23.808;2023-04-03T13:07:43;9.10;;;1.63;;
24159;SDS011;62385;41.594;23.808;2023-04-03T13:10:15;4.03;;;1.57;;
24159;SDS011;62385;41.594;23.808;2023-04-03T13:12:51;2.57;;;1.93;;
24159;SDS011;62385;41.594;23.808;2023-04-03T13:15:29;4.20;;;1.50;;
24159;SDS011;62385;41.594;23.808;2023-04-03T13:18:05;1.37;;;1.07;;
24159;SDS011;62385;41.594;23.808;2023-04-03T13:20:47;4.80;;;1.60;;
24159;SDS011;62385;41.594;23.808;2023-04-03T13:23:14;3.30;;;2.00;;
24159;SDS011;62385;41.594;23.808;2023-04-03T13:25:43;2.30;;;0.73;;
24159;SDS011;62385;41.594;23.808;2023-04-03T13:28:16;1.83;;;1.23;;
24159;SDS011;62385;41.594;23.808;2023-04-03T13:33:35;1.23;;;0.80;;
24159;SDS011;62385;41.594;23.808;2023-04-03T13:36:23;2.00;;;1.07;;
24159;SDS011;62385;41.594;23.808;2023-04-03T13:39:00;1.53;;;1.20;;
24159;SDS011;62385;41.594;23.808;2023-04-03T13:41:50;2.20;;;1.87;;
24159;SDS011;62385;41.594;23.808;2023-04-03T13:44:28;1.40;;;1.23;;
24159;SDS011;62385;41.594;23.808;2023-04-03T13:47:00;1.27;;;1.17;;
24159;SDS011;62385;41.594;23.808;2023-04-03T13:50:03;2.00;;;1.23;;
24159;SDS011;62385;41.594;23.808;2023-04-03T13:52:51;3.03;;;1.67;;
24159;SDS011;62385;41.594;23.808;2023-04-03T13:55:32;3.07;;;2.10;;
24159;SDS011;62385;41.594;23.808;2023-04-03T13:58:23;0.83;;;0.80;;
24159;SDS011;62385;41.594;23.808;2023-04-03T14:00:51;1.67;;;1.57;;
24159;SDS011;62385;41.594;23.808;2023-04-03T14:03:46;1.40;;;1.07;;
24159;SDS011;62385;41.594;23.808;2023-04-03T14:06:17;2.03;;;1.23;;
24159;SDS011;62385;41.594;23.808;2023-04-03T14:08:43;3.37;;;2.33;;
24159;SDS011;62385;41.594;23.808;2023-04-03T14:11:16;6.40;;;1.93;;
24159;SDS011;62385;41.594;23.808;2023-04-03T14:13:46;5.53;;;1.77;;
24159;SDS011;62385;41.594;23.808;2023-04-03T14:16:16;0.90;;;0.77;;
24159;SDS011;62385;41.594;23.808;2023-04-03T14:18:47;0.80;;;0.80;;
24159;SDS011;62385;41.594;23.808;2023-04-03T14:21:15;3.40;;;1.20;;
24159;SDS011;62385;41.594;23.808;2023-04-03T14:23:45;2.87;;;1.57;;
24159;SDS011;62385;41.594;23.808;2023-04-03T14:26:12;4.07;;;1.30;;
24159;SDS011;62385;41.594;23.808;2023-04-03T14:28:42;1.60;;;1.10;;
24159;SDS011;62385;41.594;23.808;2023-04-03T14:31:09;1.50;;;0.70;;
24159;SDS011;62385;41.594;23.808;2023-04-03T14:33:36;3.10;;;1.77;;
24159;SDS011;62385;41.594;23.808;2023-04-03T14:36:09;6.10;;;2.30;;
24159;SDS011;62385;41.594;23.808;2023-04-03T14:38:38;1.00;;;0.90;;
24159;SDS011;62385;41.594;23.808;2023-04-03T14:41:03;1.07;;;0.87;;
24159;SDS011;62385;41.594;23.808;2023-04-03T14:43:29;2.03;;;1.10;;
24159;SDS011;62385;41.594;23.808;2023-04-03T14:45:55;2.47;;;1.17;;
24159;SDS011;62385;41.594;23.808;2023-04-03T14:48:23;1.20;;;0.83;;
24159;SDS011;62385;41.594;23.808;2023-04-03T14:50:52;1.93;;;1.50;;
24159;SDS011;62385;41.594;23.808;2023-04-03T14:53:18;1.20;;;1.00;;
24159;SDS011;62385;41.594;23.808;2023-04-03T14:55:48;4.40;;;1.70;;
24159;SDS011;62385;41.594;23.808;2023-04-03T14:58:15;1.30;;;1.20;;
24159;SDS011;62385;41.594;23.808;2023-04-03T15:00:42;3.33;;;1.63;;
24159;SDS011;62385;41.594;23.808;2023-04-03T15:03:13;3.47;;;1.60;;
24159;SDS011;62385;41.594;23.808;2023-04-03T15:06:01;1.63;;;1.47;;
24159;SDS011;62385;41.594;23.808;2023-04-03T15:08:27;1.07;;;0.93;;
24159;SDS011;62385;41.594;23.808;2023-04-03T15:10:56;1.27;;;0.73;;
24159;SDS011;62385;41.594;23.808;2023-04-03T15:13:22;1.77;;;1.37;;
24159;SDS011;62385;41.594;23.808;2023-04-03T15:15:49;3.03;;;1.57;;
24159;SDS011;62385;41.594;23.808;2023-04-03T15:18:23;1.47;;;1.33;;
24159;SDS011;62385;41.594;23.808;2023-04-03T15:20:54;1.87;;;0.70;;
24159;SDS011;62385;41.594;23.808;2023-04-03T15:23:20;0.87;;;0.70;;
24159;SDS011;62385;41.594;23.808;2023-04-03T15:25:51;0.80;;;0.70;;
24159;SDS011;62385;41.594;23.808;2023-04-03T15:28:21;1.37;;;1.20;;
24159;SDS011;62385;41.594;23.808;2023-04-03T15:30:49;2.57;;;1.07;;
24159;SDS011;62385;41.594;23.808;2023-04-03T15:33:15;1.13;;;1.03;;
24159;SDS011;62385;41.594;23.808;2023-04-03T15:35:41;1.10;;;1.00;;
24159;SDS011;62385;41.594;23.808;2023-04-03T15:38:07;2.20;;;1.60;;
24159;SDS011;62385;41.594;23.808;2023-04-03T15:40:35;3.07;;;1.27;;
24159;SDS011;62385;41.594;23.808;2023-04-03T15:43:01;2.93;;;0.57;;
24159;SDS011;62385;41.594;23.808;2023-04-03T15:45:28;0.70;;;0.70;;
24159;SDS011;62385;41.594;23.808;2023-04-03T15:47:56;2.40;;;1.33;;
24159;SDS011;62385;41.594;23.808;2023-04-03T15:50:22;1.13;;;0.70;;
24159;SDS011;62385;41.594;23.808;2023-04-03T15:52:49;4.00;;;1.40;;
24159;SDS011;62385;41.594;23.808;2023-04-03T15:55:23;4.23;;;2.20;;
24159;SDS011;62385;41.594;23.808;2023-04-03T15:57:50;1.87;;;1.50;;
24159;SDS011;62385;41.594;23.808;2023-04-03T16:00:16;6.47;;;3.17;;
24159;SDS011;62385;41.594;23.808;2023-04-03T16:02:42;2.80;;;1.37;;
24159;SDS011;62385;41.594;23.808;2023-04-03T16:05:10;0.90;;;0.90;;
24159;SDS011;62385;41.594;23.808;2023-04-03T16:07:38;4.10;;;2.83;;
24159;SDS011;62385;41.594;23.808;2023-04-03T16:10:05;4.70;;;2.93;;
24159;SDS011;62385;41.594;23.808;2023-04-03T16:12:31;3.97;;;2.83;;
24159;SDS011;62385;41.594;23.808;2023-04-03T16:14:57;3.00;;;2.30;;
24159;SDS011;62385;41.594;23.808;2023-04-03T16:17:23;3.23;;;2.10;;
24159;SDS011;62385;41.594;23.808;2023-04-03T16:19:49;15.17;;;7.47;;
24159;SDS011;62385;41.594;23.808;2023-04-03T16:22:15;9.07;;;3.60;;
24159;SDS011;62385;41.594;23.808;2023-04-03T16:24:41;3.83;;;3.00;;
24159;SDS011;62385;41.594;23.808;2023-04-03T16:27:06;7.60;;;4.03;;
24159;SDS011;62385;41.594;23.808;2023-04-03T16:29:32;5.23;;;3.37;;
24159;SDS011;62385;41.594;23.808;2023-04-03T16:31:58;9.53;;;5.37;;
24159;SDS011;62385;41.594;23.808;2023-04-03T16:34:24;10.60;;;5.63;;
24159;SDS011;62385;41.594;23.808;2023-04-03T16:36:51;6.73;;;4.93;;
24159;SDS011;62385;41.594;23.808;2023-04-03T16:39:17;17.00;;;8.30;;